Česky Dansk Deutsch English Español Suomi Français Magyar Italiano Nederlands norsk Polski Português svenska Türkçe

 

Het Weer

Velikie Luki (Rusland)

08:30, 5 augustus 2009 (GMT)

NWNNE
WE
SWSSE
Home            
Velikie Luki Vitebsk Tartu/Ulenurme Tver Minsk Loshitsa / Minsk International 1 Vilnius St. Peterburg Riga Riga International Airport Brjansk Moscow / Vnukovo Gomel' Moscow / Sheremet'Ye Parnu Kaunas Siauliai Intl./Mil. Moscow / Domodedovo Tallinn Grodno Kuressaare Lappeenranta Helsinki-Malmi

Om een weerknop op uw website of weblog te plaatsen, copieer onderstaande code en plak die in uw pagina. In het eerste vakje staat HTML-code, in het tweede vakje UBB-code.


Add to Google

Details

Wind speed:3 bf, 7.8 kn, 4 m/s, 8.9 miles/h, 14.4 km/h
Wind direction:NW, 310°
Visibility:Greater than 10000 m, 10 km, 32800 ft, 6.2 miles
Clouds:Geschlossene Wolkendecke at 1800 ft, 549 m
Temperature:17°C, 63°F
Dew-point:16°C, 61°F
Atmospheric pressure:1019 hPa, 764.3 mmHg, 30.09 inHg, 1.006 atm
Relative humidity:93.8 %
METAR:ULOL 050830Z 31004MPS 9999 OVC018CB 17/16 Q1019 NOSIG RMK QFE755/1007

Snelkoppelingen

Actuele weersinformatie van de hele wereld. Voeg locaties toe met het plus (+) symbool. Deze snelkoppelingen kunnen worden toegevoegd aan Google.

Lid van de Technetium groep

website free tracking
StatCounter NetStat W3C Validator

27-10-2020 04:50:36
astro.technetium.be money.technetium.be phote.technetium.be tafeltennistafel.technetium.be www.ligfiets.net